Mechta S — D6A003 — position and weather

sailwx.info

Track history (hours):
 
Tides and Currents Weather Stations Pressure Air Temp Water Temp Dewpoint Dewpoint Depression Visibility Wind Speed Wind Dir Waves Ship Positions

Mechta S

Last reported at 2017-Oct-15 13:06 UTC. Time now 2017-Oct-18 11:24 UTC.
Position N 45°17' E 036°29'.

Length 119 m; draft 3.8 m.

Type: Cargo ship. MMSI: 620000003.

Date/timePositionNaut miles runAvg speedWind from/ knotsBaromVisibWave heightAir tempDewpointWater temp
2017-Oct-15 13:06N 45°17' E 036°29'1 6.2
2017-Oct-15 12:57N 45°18' E 036°29'3 5.9
2017-Oct-15 12:31N 45°19' E 036°32'3 6.7
2017-Oct-15 12:01N 45°20' E 036°37'3 6.3
2017-Oct-15 11:31N 45°23' E 036°40'3 6.3
2017-Oct-15 11:00N 45°26' E 036°41'3 5.2
2017-Oct-15 10:31N 45°28' E 036°41'4 6.9
2017-Oct-15 10:00N 45°31' E 036°38'1 0.0
2017-Oct-14 05:20N 45°32' E 036°37'2 5.2
2017-Oct-14 05:00N 45°33' E 036°39'2 4.4
2017-Oct-14 04:30N 45°34' E 036°42'3 6.0
2017-Oct-14 04:00N 45°36' E 036°45'  
2017-Oct-05 13:47N 45°30' E 036°44'2 7.7
2017-Oct-05 13:30N 45°28' E 036°43'  
Track history (hours):
 
Tides and Currents Weather Stations Pressure Air Temp Water Temp Dewpoint Dewpoint Depression Visibility Wind Speed Wind Dir Waves Ship Positions

Mechta S

Last reported at 2017-Oct-15 13:06 UTC. Time now 2017-Oct-18 11:24 UTC.
Position N 45°17' E 036°29'.

Length 119 m; draft 3.8 m.

Type: Cargo ship. MMSI: 620000003.

Date/timePositionNaut miles runAvg speedWind from/ knotsBaromVisibWave heightAir tempDewpointWater temp
2017-Oct-15 13:06N 45°17' E 036°29'1 6.2
2017-Oct-15 12:57N 45°18' E 036°29'3 5.9
2017-Oct-15 12:31N 45°19' E 036°32'3 6.7
2017-Oct-15 12:01N 45°20' E 036°37'3 6.3
2017-Oct-15 11:31N 45°23' E 036°40'3 6.3
2017-Oct-15 11:00N 45°26' E 036°41'3 5.2
2017-Oct-15 10:31N 45°28' E 036°41'4 6.9
2017-Oct-15 10:00N 45°31' E 036°38'1 0.0
2017-Oct-14 05:20N 45°32' E 036°37'2 5.2
2017-Oct-14 05:00N 45°33' E 036°39'2 4.4
2017-Oct-14 04:30N 45°34' E 036°42'3 6.0
2017-Oct-14 04:00N 45°36' E 036°45'  
2017-Oct-05 13:47N 45°30' E 036°44'2 7.7
2017-Oct-05 13:30N 45°28' E 036°43'  

Dump ship's entire track history